sensor_id;sensor_type;location;lat;lon;timestamp;pressure;altitude;pressure_sealevel;temperature;humidity
54554;BME280;40450;55.848;-3.572;2023-02-26T00:01:56;100687.65;;;8.86;56.87
54554;BME280;40450;55.848;-3.572;2023-02-26T00:04:27;100692.16;;;8.81;56.34
54554;BME280;40450;55.848;-3.572;2023-02-26T00:06:57;100690.78;;;8.69;57.54
54554;BME280;40450;55.848;-3.572;2023-02-26T00:09:27;100688.33;;;8.87;57.38
54554;BME280;40450;55.848;-3.572;2023-02-26T00:11:59;100687.51;;;9.00;57.58
54554;BME280;40450;55.848;-3.572;2023-02-26T00:14:29;100684.29;;;9.16;57.54
54554;BME280;40450;55.848;-3.572;2023-02-26T00:17:08;100685.66;;;8.98;55.71
54554;BME280;40450;55.848;-3.572;2023-02-26T00:19:29;100685.65;;;9.09;56.82
54554;BME280;40450;55.848;-3.572;2023-02-26T00:22:00;100690.28;;;8.71;55.41
54554;BME280;40450;55.848;-3.572;2023-02-26T00:24:30;100692.39;;;8.87;56.84
54554;BME280;40450;55.848;-3.572;2023-02-26T00:27:00;100694.98;;;9.04;56.99
54554;BME280;40450;55.848;-3.572;2023-02-26T00:29:31;100696.62;;;8.89;55.76
54554;BME280;40450;55.848;-3.572;2023-02-26T00:32:02;100701.62;;;9.03;56.00
54554;BME280;40450;55.848;-3.572;2023-02-26T00:34:33;100703.21;;;8.93;56.05
54554;BME280;40450;55.848;-3.572;2023-02-26T00:37:11;100707.84;;;8.98;55.80
54554;BME280;40450;55.848;-3.572;2023-02-26T00:39:39;100709.95;;;9.11;56.02
54554;BME280;40450;55.848;-3.572;2023-02-26T00:42:04;100711.69;;;9.21;55.97
54554;BME280;40450;55.848;-3.572;2023-02-26T00:44:34;100712.72;;;9.31;55.95
54554;BME280;40450;55.848;-3.572;2023-02-26T00:47:11;100719.64;;;9.45;55.99
54554;BME280;40450;55.848;-3.572;2023-02-26T00:49:46;100725.03;;;9.56;55.61
54554;BME280;40450;55.848;-3.572;2023-02-26T00:52:11;100727.44;;;9.65;55.40
54554;BME280;40450;55.848;-3.572;2023-02-26T00:54:35;100731.47;;;9.68;54.74
54554;BME280;40450;55.848;-3.572;2023-02-26T00:57:05;100733.82;;;9.69;54.82
54554;BME280;40450;55.848;-3.572;2023-02-26T00:59:36;100737.88;;;9.33;55.23
54554;BME280;40450;55.848;-3.572;2023-02-26T01:02:06;100746.08;;;7.55;56.79
54554;BME280;40450;55.848;-3.572;2023-02-26T01:04:38;100744.60;;;8.73;56.24
54554;BME280;40450;55.848;-3.572;2023-02-26T01:07:08;100747.86;;;7.89;56.94
54554;BME280;40450;55.848;-3.572;2023-02-26T01:09:38;100757.11;;;7.84;56.65
54554;BME280;40450;55.848;-3.572;2023-02-26T01:12:11;100757.83;;;9.08;55.40
54554;BME280;40450;55.848;-3.572;2023-02-26T01:14:39;100761.67;;;9.24;55.53
54554;BME280;40450;55.848;-3.572;2023-02-26T01:17:13;100757.13;;;9.33;55.07
54554;BME280;40450;55.848;-3.572;2023-02-26T01:19:44;100754.61;;;9.34;55.50
54554;BME280;40450;55.848;-3.572;2023-02-26T01:22:14;100752.11;;;9.28;54.53
54554;BME280;40450;55.848;-3.572;2023-02-26T01:24:41;100756.15;;;9.51;55.10
54554;BME280;40450;55.848;-3.572;2023-02-26T01:27:11;100760.76;;;9.55;55.31
54554;BME280;40450;55.848;-3.572;2023-02-26T01:29:41;100765.06;;;9.56;54.72
54554;BME280;40450;55.848;-3.572;2023-02-26T01:32:16;100765.28;;;9.63;54.42
54554;BME280;40450;55.848;-3.572;2023-02-26T01:34:47;100764.30;;;9.52;53.99
54554;BME280;40450;55.848;-3.572;2023-02-26T01:37:20;100769.85;;;9.68;54.56
54554;BME280;40450;55.848;-3.572;2023-02-26T01:39:47;100763.35;;;9.43;54.28
54554;BME280;40450;55.848;-3.572;2023-02-26T01:42:16;100765.99;;;9.50;54.57
54554;BME280;40450;55.848;-3.572;2023-02-26T01:44:54;100766.81;;;9.56;53.86
54554;BME280;40450;55.848;-3.572;2023-02-26T01:47:19;100767.23;;;9.65;53.54
54554;BME280;40450;55.848;-3.572;2023-02-26T01:49:46;100759.73;;;9.64;53.90
54554;BME280;40450;55.848;-3.572;2023-02-26T01:54:46;100762.96;;;9.41;53.36
54554;BME280;40450;55.848;-3.572;2023-02-26T01:57:17;100767.60;;;9.27;53.61
54554;BME280;40450;55.848;-3.572;2023-02-26T01:59:48;100768.24;;;9.56;54.31
54554;BME280;40450;55.848;-3.572;2023-02-26T02:02:19;100767.05;;;9.18;53.68
54554;BME280;40450;55.848;-3.572;2023-02-26T02:04:48;100768.98;;;9.70;54.11
54554;BME280;40450;55.848;-3.572;2023-02-26T02:07:18;100779.98;;;8.61;54.56
54554;BME280;40450;55.848;-3.572;2023-02-26T02:09:48;100779.02;;;7.77;56.70
54554;BME280;40450;55.848;-3.572;2023-02-26T02:12:25;100781.43;;;7.56;56.86
54554;BME280;40450;55.848;-3.572;2023-02-26T02:14:58;100790.72;;;4.11;66.24
54554;BME280;40450;55.848;-3.572;2023-02-26T02:17:26;100791.99;;;2.59;70.23
54554;BME280;40450;55.848;-3.572;2023-02-26T02:22:30;100795.19;;;3.36;68.70
54554;BME280;40450;55.848;-3.572;2023-02-26T02:25:08;100792.07;;;3.01;70.29
54554;BME280;40450;55.848;-3.572;2023-02-26T02:27:25;100786.80;;;4.66;66.97
54554;BME280;40450;55.848;-3.572;2023-02-26T02:30:04;100790.45;;;6.22;64.03
54554;BME280;40450;55.848;-3.572;2023-02-26T02:32:26;100791.77;;;7.05;62.70
54554;BME280;40450;55.848;-3.572;2023-02-26T02:34:59;100791.91;;;6.01;61.97
54554;BME280;40450;55.848;-3.572;2023-02-26T02:37:27;100791.08;;;6.83;61.32
54554;BME280;40450;55.848;-3.572;2023-02-26T02:39:57;100796.35;;;8.18;60.79
54554;BME280;40450;55.848;-3.572;2023-02-26T02:42:27;100793.79;;;7.94;59.57
54554;BME280;40450;55.848;-3.572;2023-02-26T02:44:58;100797.77;;;6.95;60.62
54554;BME280;40450;55.848;-3.572;2023-02-26T02:47:27;100797.55;;;6.79;60.16
54554;BME280;40450;55.848;-3.572;2023-02-26T02:50:01;100792.10;;;7.38;60.12
54554;BME280;40450;55.848;-3.572;2023-02-26T02:52:31;100793.65;;;6.70;59.78
54554;BME280;40450;55.848;-3.572;2023-02-26T02:54:59;100795.17;;;7.95;59.69
54554;BME280;40450;55.848;-3.572;2023-02-26T02:57:32;100806.28;;;8.48;56.95
54554;BME280;40450;55.848;-3.572;2023-02-26T03:00:00;100814.06;;;8.85;57.87
54554;BME280;40450;55.848;-3.572;2023-02-26T03:02:31;100816.65;;;8.41;57.74
54554;BME280;40450;55.848;-3.572;2023-02-26T03:04:59;100820.25;;;8.97;56.39
54554;BME280;40450;55.848;-3.572;2023-02-26T03:07:33;100820.55;;;8.78;56.46
54554;BME280;40450;55.848;-3.572;2023-02-26T03:09:59;100816.33;;;9.39;55.37
54554;BME280;40450;55.848;-3.572;2023-02-26T03:12:31;100821.92;;;8.63;56.01
54554;BME280;40450;55.848;-3.572;2023-02-26T03:15:01;100819.99;;;7.56;57.05
54554;BME280;40450;55.848;-3.572;2023-02-26T03:17:34;100824.33;;;6.84;58.86
54554;BME280;40450;55.848;-3.572;2023-02-26T03:20:10;100827.93;;;8.67;55.71
54554;BME280;40450;55.848;-3.572;2023-02-26T03:22:41;100828.62;;;9.18;55.88
54554;BME280;40450;55.848;-3.572;2023-02-26T03:25:07;100825.32;;;9.48;54.64
54554;BME280;40450;55.848;-3.572;2023-02-26T03:27:35;100827.67;;;9.65;54.14
54554;BME280;40450;55.848;-3.572;2023-02-26T03:30:05;100829.36;;;9.74;54.62
54554;BME280;40450;55.848;-3.572;2023-02-26T03:32:40;100830.97;;;9.79;53.71
54554;BME280;40450;55.848;-3.572;2023-02-26T03:35:08;100832.99;;;9.89;53.61
54554;BME280;40450;55.848;-3.572;2023-02-26T03:37:39;100833.00;;;9.84;53.43
54554;BME280;40450;55.848;-3.572;2023-02-26T03:40:08;100838.96;;;9.20;53.74
54554;BME280;40450;55.848;-3.572;2023-02-26T03:42:39;100839.33;;;9.16;54.44
54554;BME280;40450;55.848;-3.572;2023-02-26T03:45:08;100844.63;;;8.99;54.50
54554;BME280;40450;55.848;-3.572;2023-02-26T03:47:38;100843.73;;;9.28;54.86
54554;BME280;40450;55.848;-3.572;2023-02-26T03:50:10;100841.01;;;7.98;55.32
54554;BME280;40450;55.848;-3.572;2023-02-26T03:52:39;100843.69;;;7.47;55.85
54554;BME280;40450;55.848;-3.572;2023-02-26T03:55:10;100844.35;;;9.08;54.41
54554;BME280;40450;55.848;-3.572;2023-02-26T03:57:38;100842.56;;;9.30;54.09
54554;BME280;40450;55.848;-3.572;2023-02-26T04:00:10;100841.23;;;9.51;54.37
54554;BME280;40450;55.848;-3.572;2023-02-26T04:02:43;100842.12;;;9.64;54.15
54554;BME280;40450;55.848;-3.572;2023-02-26T04:05:14;100846.36;;;9.13;53.34
54554;BME280;40450;55.848;-3.572;2023-02-26T04:07:40;100849.48;;;9.65;53.60
54554;BME280;40450;55.848;-3.572;2023-02-26T04:10:13;100850.74;;;7.85;54.22
54554;BME280;40450;55.848;-3.572;2023-02-26T04:12:41;100851.11;;;9.40;53.83
54554;BME280;40450;55.848;-3.572;2023-02-26T04:15:11;100849.17;;;9.69;53.00
54554;BME280;40450;55.848;-3.572;2023-02-26T04:17:41;100850.03;;;9.64;53.21
54554;BME280;40450;55.848;-3.572;2023-02-26T04:20:12;100854.52;;;9.45;53.04
54554;BME280;40450;55.848;-3.572;2023-02-26T04:22:42;100862.06;;;9.24;53.27
54554;BME280;40450;55.848;-3.572;2023-02-26T04:25:12;100863.07;;;9.50;53.93
54554;BME280;40450;55.848;-3.572;2023-02-26T04:27:43;100867.31;;;9.02;54.34
54554;BME280;40450;55.848;-3.572;2023-02-26T04:30:13;100871.79;;;9.11;53.96
54554;BME280;40450;55.848;-3.572;2023-02-26T04:32:43;100873.52;;;8.87;54.79
54554;BME280;40450;55.848;-3.572;2023-02-26T04:35:14;100879.93;;;8.76;55.37
54554;BME280;40450;55.848;-3.572;2023-02-26T04:37:44;100885.25;;;8.18;56.24
54554;BME280;40450;55.848;-3.572;2023-02-26T04:40:15;100887.52;;;8.49;56.15
54554;BME280;40450;55.848;-3.572;2023-02-26T04:42:45;100887.31;;;8.66;55.44
54554;BME280;40450;55.848;-3.572;2023-02-26T04:45:16;100892.63;;;8.79;55.28
54554;BME280;40450;55.848;-3.572;2023-02-26T04:47:46;100893.64;;;9.16;55.05
54554;BME280;40450;55.848;-3.572;2023-02-26T04:50:17;100898.24;;;8.97;54.84
54554;BME280;40450;55.848;-3.572;2023-02-26T04:52:47;100900.00;;;8.76;55.23
54554;BME280;40450;55.848;-3.572;2023-02-26T04:55:17;100901.18;;;8.61;55.89
54554;BME280;40450;55.848;-3.572;2023-02-26T04:57:48;100904.76;;;8.05;57.23
54554;BME280;40450;55.848;-3.572;2023-02-26T05:00:18;100906.74;;;8.03;57.26
54554;BME280;40450;55.848;-3.572;2023-02-26T05:02:49;100908.57;;;8.37;56.87
54554;BME280;40450;55.848;-3.572;2023-02-26T05:05:19;100912.08;;;8.71;56.47
54554;BME280;40450;55.848;-3.572;2023-02-26T05:07:49;100916.40;;;8.63;56.31
54554;BME280;40450;55.848;-3.572;2023-02-26T05:10:20;100915.22;;;8.49;56.90
54554;BME280;40450;55.848;-3.572;2023-02-26T05:12:51;100915.36;;;8.49;56.96
54554;BME280;40450;55.848;-3.572;2023-02-26T05:15:21;100919.24;;;8.61;57.02
54554;BME280;40450;55.848;-3.572;2023-02-26T05:17:51;100918.57;;;8.55;57.19
54554;BME280;40450;55.848;-3.572;2023-02-26T05:20:22;100921.26;;;8.75;56.85
54554;BME280;40450;55.848;-3.572;2023-02-26T05:22:52;100923.88;;;8.87;56.54
54554;BME280;40450;55.848;-3.572;2023-02-26T05:25:23;100924.37;;;9.14;56.52
54554;BME280;40450;55.848;-3.572;2023-02-26T05:27:53;100922.92;;;8.90;56.04
54554;BME280;40450;55.848;-3.572;2023-02-26T05:30:23;100921.30;;;8.72;56.46
54554;BME280;40450;55.848;-3.572;2023-02-26T05:32:54;100919.46;;;8.84;56.85
54554;BME280;40450;55.848;-3.572;2023-02-26T05:35:24;100914.62;;;8.99;56.27
54554;BME280;40450;55.848;-3.572;2023-02-26T05:37:55;100911.47;;;8.30;57.05
54554;BME280;40450;55.848;-3.572;2023-02-26T05:40:25;100919.22;;;8.30;57.54
54554;BME280;40450;55.848;-3.572;2023-02-26T05:42:55;100925.23;;;8.00;58.24
54554;BME280;40450;55.848;-3.572;2023-02-26T05:45:26;100924.90;;;7.85;58.31
54554;BME280;40450;55.848;-3.572;2023-02-26T05:47:56;100924.49;;;8.01;58.82
54554;BME280;40450;55.848;-3.572;2023-02-26T05:50:27;100931.76;;;8.49;58.29
54554;BME280;40450;55.848;-3.572;2023-02-26T05:52:58;100933.11;;;6.77;58.64
54554;BME280;40450;55.848;-3.572;2023-02-26T05:55:28;100932.86;;;7.96;57.98
54554;BME280;40450;55.848;-3.572;2023-02-26T05:57:58;100936.13;;;8.46;58.41
54554;BME280;40450;55.848;-3.572;2023-02-26T06:00:29;100939.32;;;8.67;56.89
54554;BME280;40450;55.848;-3.572;2023-02-26T06:02:59;100945.04;;;7.73;58.83
54554;BME280;40450;55.848;-3.572;2023-02-26T06:05:30;100943.66;;;8.69;57.19
54554;BME280;40450;55.848;-3.572;2023-02-26T06:08:00;100943.70;;;8.77;57.38
54554;BME280;40450;55.848;-3.572;2023-02-26T06:10:31;100943.14;;;8.99;55.97
54554;BME280;40450;55.848;-3.572;2023-02-26T06:13:02;100946.70;;;9.11;56.51
54554;BME280;40450;55.848;-3.572;2023-02-26T06:15:32;100947.05;;;9.05;56.59
54554;BME280;40450;55.848;-3.572;2023-02-26T06:18:02;100949.53;;;9.18;56.36
54554;BME280;40450;55.848;-3.572;2023-02-26T06:20:32;100952.82;;;9.28;56.15
54554;BME280;40450;55.848;-3.572;2023-02-26T06:23:03;100954.68;;;9.47;55.74
54554;BME280;40450;55.848;-3.572;2023-02-26T06:25:36;100950.47;;;9.39;55.79
54554;BME280;40450;55.848;-3.572;2023-02-26T06:28:04;100951.81;;;9.37;55.24
54554;BME280;40450;55.848;-3.572;2023-02-26T06:30:34;100950.51;;;9.57;55.31
54554;BME280;40450;55.848;-3.572;2023-02-26T06:33:04;100950.98;;;9.70;54.57
54554;BME280;40450;55.848;-3.572;2023-02-26T06:35:36;100952.84;;;9.63;54.80
54554;BME280;40450;55.848;-3.572;2023-02-26T06:38:05;100954.22;;;9.50;54.91
54554;BME280;40450;55.848;-3.572;2023-02-26T06:40:36;100953.10;;;8.97;54.22
54554;BME280;40450;55.848;-3.572;2023-02-26T06:43:07;100953.08;;;8.98;54.32
54554;BME280;40450;55.848;-3.572;2023-02-26T06:45:37;100955.05;;;8.05;57.45
54554;BME280;40450;55.848;-3.572;2023-02-26T06:48:07;100952.87;;;8.90;56.30
54554;BME280;40450;55.848;-3.572;2023-02-26T06:50:38;100952.94;;;8.02;56.73
54554;BME280;40450;55.848;-3.572;2023-02-26T06:53:08;100956.80;;;8.52;56.87
54554;BME280;40450;55.848;-3.572;2023-02-26T06:55:43;100961.93;;;8.71;56.19
54554;BME280;40450;55.848;-3.572;2023-02-26T06:58:09;100969.89;;;8.76;56.53
54554;BME280;40450;55.848;-3.572;2023-02-26T07:00:40;100976.92;;;8.85;56.34
54554;BME280;40450;55.848;-3.572;2023-02-26T07:03:11;100977.65;;;9.05;56.37
54554;BME280;40450;55.848;-3.572;2023-02-26T07:05:41;100980.53;;;7.46;59.03
54554;BME280;40450;55.848;-3.572;2023-02-26T07:08:11;100978.12;;;8.56;57.02
54554;BME280;40450;55.848;-3.572;2023-02-26T07:10:42;100989.64;;;8.83;56.90
54554;BME280;40450;55.848;-3.572;2023-02-26T07:13:12;100992.55;;;8.55;56.75
54554;BME280;40450;55.848;-3.572;2023-02-26T07:15:42;100991.55;;;8.29;57.34
54554;BME280;40450;55.848;-3.572;2023-02-26T07:18:12;100995.96;;;8.07;57.85
54554;BME280;40450;55.848;-3.572;2023-02-26T07:20:44;101003.45;;;8.50;57.87
54554;BME280;40450;55.848;-3.572;2023-02-26T07:23:13;101008.41;;;7.89;58.82
54554;BME280;40450;55.848;-3.572;2023-02-26T07:25:44;101007.96;;;8.04;58.71
54554;BME280;40450;55.848;-3.572;2023-02-26T07:28:14;101017.27;;;8.39;58.79
54554;BME280;40450;55.848;-3.572;2023-02-26T07:30:45;101022.11;;;8.46;57.83
54554;BME280;40450;55.848;-3.572;2023-02-26T07:33:15;101024.11;;;8.64;57.94
54554;BME280;40450;55.848;-3.572;2023-02-26T07:35:46;101021.59;;;8.81;57.46
54554;BME280;40450;55.848;-3.572;2023-02-26T07:38:16;101027.09;;;9.06;57.31
54554;BME280;40450;55.848;-3.572;2023-02-26T07:40:46;101034.10;;;8.14;58.61
54554;BME280;40450;55.848;-3.572;2023-02-26T07:43:17;101034.37;;;8.04;58.23
54554;BME280;40450;55.848;-3.572;2023-02-26T07:45:49;101034.64;;;7.81;59.41
54554;BME280;40450;55.848;-3.572;2023-02-26T07:48:18;101035.87;;;7.90;59.54
54554;BME280;40450;55.848;-3.572;2023-02-26T07:50:50;101042.02;;;7.30;60.91
54554;BME280;40450;55.848;-3.572;2023-02-26T07:53:19;101045.70;;;7.19;61.06
54554;BME280;40450;55.848;-3.572;2023-02-26T07:55:49;101048.45;;;7.27;60.95
54554;BME280;40450;55.848;-3.572;2023-02-26T07:58:19;101051.21;;;7.89;60.46
54554;BME280;40450;55.848;-3.572;2023-02-26T08:00:50;101054.17;;;8.24;59.69
54554;BME280;40450;55.848;-3.572;2023-02-26T08:03:20;101057.04;;;8.71;59.19
54554;BME280;40450;55.848;-3.572;2023-02-26T08:05:51;101061.92;;;8.40;58.89
54554;BME280;40450;55.848;-3.572;2023-02-26T08:08:23;101060.58;;;8.64;59.14
54554;BME280;40450;55.848;-3.572;2023-02-26T08:10:52;101059.49;;;8.88;58.30
54554;BME280;40450;55.848;-3.572;2023-02-26T08:13:22;101058.01;;;9.03;58.47
54554;BME280;40450;55.848;-3.572;2023-02-26T08:15:54;101060.21;;;9.22;57.92
54554;BME280;40450;55.848;-3.572;2023-02-26T08:18:23;101058.53;;;9.43;57.37
54554;BME280;40450;55.848;-3.572;2023-02-26T08:20:53;101058.11;;;9.61;57.38
54554;BME280;40450;55.848;-3.572;2023-02-26T08:23:24;101066.69;;;9.91;57.17
54554;BME280;40450;55.848;-3.572;2023-02-26T08:25:59;101066.42;;;9.80;55.39
54554;BME280;40450;55.848;-3.572;2023-02-26T08:28:25;101072.95;;;9.89;56.06
54554;BME280;40450;55.848;-3.572;2023-02-26T08:30:56;101075.22;;;10.05;56.48
54554;BME280;40450;55.848;-3.572;2023-02-26T08:33:27;101080.06;;;10.03;55.83
54554;BME280;40450;55.848;-3.572;2023-02-26T08:35:56;101085.02;;;9.89;55.85
54554;BME280;40450;55.848;-3.572;2023-02-26T08:38:27;101091.12;;;9.76;55.74
54554;BME280;40450;55.848;-3.572;2023-02-26T08:40:57;101096.38;;;9.91;56.21
54554;BME280;40450;55.848;-3.572;2023-02-26T08:43:28;101100.30;;;9.94;56.03
54554;BME280;40450;55.848;-3.572;2023-02-26T08:45:57;101103.84;;;10.18;55.69
54554;BME280;40450;55.848;-3.572;2023-02-26T08:48:28;101107.84;;;10.22;55.55
54554;BME280;40450;55.848;-3.572;2023-02-26T08:50:59;101110.41;;;10.29;55.34
54554;BME280;40450;55.848;-3.572;2023-02-26T08:53:29;101106.83;;;10.30;54.89
54554;BME280;40450;55.848;-3.572;2023-02-26T08:56:05;101111.31;;;10.63;55.11
54554;BME280;40450;55.848;-3.572;2023-02-26T08:58:30;101116.80;;;10.59;54.01
54554;BME280;40450;55.848;-3.572;2023-02-26T09:01:01;101119.24;;;10.55;54.47
54554;BME280;40450;55.848;-3.572;2023-02-26T09:03:30;101120.39;;;10.42;54.09
54554;BME280;40450;55.848;-3.572;2023-02-26T09:06:01;101117.53;;;10.41;53.69
54554;BME280;40450;55.848;-3.572;2023-02-26T09:08:32;101116.66;;;9.73;53.79
54554;BME280;40450;55.848;-3.572;2023-02-26T09:11:02;101123.26;;;9.82;54.30
54554;BME280;40450;55.848;-3.572;2023-02-26T09:13:32;101124.25;;;10.29;54.32
54554;BME280;40450;55.848;-3.572;2023-02-26T09:16:03;101121.38;;;10.11;53.99
54554;BME280;40450;55.848;-3.572;2023-02-26T09:18:34;101126.71;;;9.12;55.83
54554;BME280;40450;55.848;-3.572;2023-02-26T09:21:04;101127.53;;;8.33;56.79
54554;BME280;40450;55.848;-3.572;2023-02-26T09:23:34;101123.95;;;9.15;56.64
54554;BME280;40450;55.848;-3.572;2023-02-26T09:26:05;101125.10;;;9.27;55.87
54554;BME280;40450;55.848;-3.572;2023-02-26T09:28:35;101125.59;;;9.67;55.06
54554;BME280;40450;55.848;-3.572;2023-02-26T09:31:05;101132.90;;;8.66;56.38
54554;BME280;40450;55.848;-3.572;2023-02-26T09:33:36;101133.40;;;7.92;57.31
54554;BME280;40450;55.848;-3.572;2023-02-26T09:36:07;101145.71;;;5.26;63.95
54554;BME280;40450;55.848;-3.572;2023-02-26T09:38:36;101152.74;;;3.86;69.93
54554;BME280;40450;55.848;-3.572;2023-02-26T09:41:15;101153.80;;;5.50;65.57
54554;BME280;40450;55.848;-3.572;2023-02-26T09:43:48;101156.72;;;4.94;66.63
54554;BME280;40450;55.848;-3.572;2023-02-26T09:46:11;101157.59;;;7.70;63.05
54554;BME280;40450;55.848;-3.572;2023-02-26T09:48:39;101155.39;;;8.30;57.90
54554;BME280;40450;55.848;-3.572;2023-02-26T09:51:11;101159.16;;;8.77;57.98
54554;BME280;40450;55.848;-3.572;2023-02-26T09:53:39;101163.39;;;6.83;62.23
54554;BME280;40450;55.848;-3.572;2023-02-26T09:56:13;101157.31;;;8.41;60.04
54554;BME280;40450;55.848;-3.572;2023-02-26T09:58:41;101158.42;;;7.29;60.66
54554;BME280;40450;55.848;-3.572;2023-02-26T10:01:15;101167.07;;;3.64;71.68
54554;BME280;40450;55.848;-3.572;2023-02-26T10:03:52;101164.92;;;5.26;68.20
54554;BME280;40450;55.848;-3.572;2023-02-26T10:06:17;101178.34;;;1.46;78.50
54554;BME280;40450;55.848;-3.572;2023-02-26T10:08:47;101175.40;;;-0.26;83.19
54554;BME280;40450;55.848;-3.572;2023-02-26T10:11:16;101178.90;;;0.52;81.77
54554;BME280;40450;55.848;-3.572;2023-02-26T10:13:45;101171.56;;;2.46;77.12
54554;BME280;40450;55.848;-3.572;2023-02-26T10:16:15;101166.82;;;4.77;71.62
54554;BME280;40450;55.848;-3.572;2023-02-26T10:18:45;101170.98;;;4.41;72.73
54554;BME280;40450;55.848;-3.572;2023-02-26T10:21:16;101171.22;;;4.82;72.75
54554;BME280;40450;55.848;-3.572;2023-02-26T10:23:48;101172.88;;;3.25;73.94
54554;BME280;40450;55.848;-3.572;2023-02-26T10:26:19;101175.46;;;4.82;71.82
54554;BME280;40450;55.848;-3.572;2023-02-26T10:28:53;101180.99;;;4.08;73.96
54554;BME280;40450;55.848;-3.572;2023-02-26T10:31:22;101180.52;;;4.73;71.96
54554;BME280;40450;55.848;-3.572;2023-02-26T10:33:49;101187.87;;;3.81;73.51
54554;BME280;40450;55.848;-3.572;2023-02-26T10:36:24;101183.54;;;3.76;73.79
54554;BME280;40450;55.848;-3.572;2023-02-26T10:38:51;101178.63;;;5.20;70.79
54554;BME280;40450;55.848;-3.572;2023-02-26T10:41:21;101183.39;;;3.91;73.79
54554;BME280;40450;55.848;-3.572;2023-02-26T10:43:55;101184.83;;;3.63;72.77
54554;BME280;40450;55.848;-3.572;2023-02-26T10:46:24;101184.84;;;4.57;72.50
54554;BME280;40450;55.848;-3.572;2023-02-26T10:48:59;101187.79;;;6.29;71.15
54554;BME280;40450;55.848;-3.572;2023-02-26T10:51:23;101181.57;;;5.56;71.28
54554;BME280;40450;55.848;-3.572;2023-02-26T10:53:53;101184.45;;;2.65;76.68
54554;BME280;40450;55.848;-3.572;2023-02-26T10:56:23;101188.70;;;2.59;77.56
54554;BME280;40450;55.848;-3.572;2023-02-26T10:58:51;101197.94;;;-0.30;85.35
54554;BME280;40450;55.848;-3.572;2023-02-26T11:01:24;101197.58;;;1.01;82.30
54554;BME280;40450;55.848;-3.572;2023-02-26T11:03:55;101197.70;;;0.35;83.94
54554;BME280;40450;55.848;-3.572;2023-02-26T11:06:26;101198.50;;;1.29;82.79
54554;BME280;40450;55.848;-3.572;2023-02-26T11:08:54;101198.57;;;1.21;83.86
54554;BME280;40450;55.848;-3.572;2023-02-26T11:13:53;101196.82;;;-0.05;85.05
54554;BME280;40450;55.848;-3.572;2023-02-26T11:16:23;101197.13;;;0.68;84.92
54554;BME280;40450;55.848;-3.572;2023-02-26T11:18:57;101188.10;;;4.23;77.21
54554;BME280;40450;55.848;-3.572;2023-02-26T11:21:28;101190.35;;;2.75;77.86
54554;BME280;40450;55.848;-3.572;2023-02-26T11:24:00;101197.09;;;-0.53;85.77
54554;BME280;40450;55.848;-3.572;2023-02-26T11:26:27;101198.58;;;0.12;85.35
54554;BME280;40450;55.848;-3.572;2023-02-26T11:28:57;101202.90;;;1.07;83.43
54554;BME280;40450;55.848;-3.572;2023-02-26T11:31:28;101192.87;;;2.64;80.27
54554;BME280;40450;55.848;-3.572;2023-02-26T11:34:00;101203.63;;;1.91;81.23
54554;BME280;40450;55.848;-3.572;2023-02-26T11:36:30;101199.70;;;2.90;79.41
54554;BME280;40450;55.848;-3.572;2023-02-26T11:39:01;101205.64;;;1.79;80.23
54554;BME280;40450;55.848;-3.572;2023-02-26T11:41:28;101196.58;;;3.14;78.05
54554;BME280;40450;55.848;-3.572;2023-02-26T11:44:01;101196.63;;;4.31;75.46
54554;BME280;40450;55.848;-3.572;2023-02-26T11:46:29;101188.13;;;4.94;74.06
54554;BME280;40450;55.848;-3.572;2023-02-26T11:49:01;101193.61;;;3.07;76.49
54554;BME280;40450;55.848;-3.572;2023-02-26T11:51:34;101190.53;;;2.69;78.50
54554;BME280;40450;55.848;-3.572;2023-02-26T11:54:00;101193.34;;;2.87;79.11
54554;BME280;40450;55.848;-3.572;2023-02-26T11:56:31;101198.26;;;2.50;78.23
54554;BME280;40450;55.848;-3.572;2023-02-26T11:59:06;101200.57;;;4.25;76.48
54554;BME280;40450;55.848;-3.572;2023-02-26T12:01:31;101198.56;;;6.55;68.74
54554;BME280;40450;55.848;-3.572;2023-02-26T12:04:02;101192.57;;;7.75;70.53
54554;BME280;40450;55.848;-3.572;2023-02-26T12:06:31;101197.42;;;6.88;69.09
54554;BME280;40450;55.848;-3.572;2023-02-26T12:09:03;101195.82;;;8.60;63.33
54554;BME280;40450;55.848;-3.572;2023-02-26T12:11:43;101197.25;;;8.67;64.76
54554;BME280;40450;55.848;-3.572;2023-02-26T12:14:16;101196.09;;;9.70;60.38
54554;BME280;40450;55.848;-3.572;2023-02-26T12:16:38;101207.75;;;6.28;67.11
54554;BME280;40450;55.848;-3.572;2023-02-26T12:19:08;101212.96;;;5.14;69.25
54554;BME280;40450;55.848;-3.572;2023-02-26T12:21:52;101212.41;;;5.78;68.59
54554;BME280;40450;55.848;-3.572;2023-02-26T12:24:21;101216.59;;;4.98;69.45
54554;BME280;40450;55.848;-3.572;2023-02-26T12:26:44;101212.48;;;6.04;66.34
54554;BME280;40450;55.848;-3.572;2023-02-26T12:29:15;101210.09;;;5.49;67.65
54554;BME280;40450;55.848;-3.572;2023-02-26T12:31:45;101212.31;;;5.05;69.48
54554;BME280;40450;55.848;-3.572;2023-02-26T12:34:18;101206.06;;;7.96;66.70
54554;BME280;40450;55.848;-3.572;2023-02-26T12:36:44;101217.02;;;3.13;73.53
54554;BME280;40450;55.848;-3.572;2023-02-26T12:39:15;101213.18;;;2.89;74.75
54554;BME280;40450;55.848;-3.572;2023-02-26T12:41:47;101213.96;;;2.85;75.23
54554;BME280;40450;55.848;-3.572;2023-02-26T12:44:16;101214.90;;;2.38;76.63
54554;BME280;40450;55.848;-3.572;2023-02-26T12:46:49;101210.02;;;4.28;71.44
54554;BME280;40450;55.848;-3.572;2023-02-26T12:49:24;101203.89;;;5.85;68.97
54554;BME280;40450;55.848;-3.572;2023-02-26T12:51:49;101198.23;;;8.60;63.81
54554;BME280;40450;55.848;-3.572;2023-02-26T12:54:20;101203.42;;;4.87;67.48
54554;BME280;40450;55.848;-3.572;2023-02-26T12:59:24;101210.12;;;2.66;76.37
54554;BME280;40450;55.848;-3.572;2023-02-26T13:01:50;101218.11;;;1.69;79.19
54554;BME280;40450;55.848;-3.572;2023-02-26T13:06:51;101209.92;;;2.95;76.38
54554;BME280;40450;55.848;-3.572;2023-02-26T13:09:19;101207.08;;;4.74;71.26
54554;BME280;40450;55.848;-3.572;2023-02-26T13:11:49;101205.02;;;4.91;72.49
54554;BME280;40450;55.848;-3.572;2023-02-26T13:14:24;101209.50;;;4.23;72.93
54554;BME280;40450;55.848;-3.572;2023-02-26T13:16:48;101211.52;;;4.29;71.13
54554;BME280;40450;55.848;-3.572;2023-02-26T13:19:22;101203.80;;;6.32;67.72